Time;durP1;ratioP1;P1;durP2;ratioP2;P2;SDS_P1;SDS_P2;PMS_P1;PMS_P2;Temp;Humidity;BMP_temperature;BMP_pressure;BME280_temperature;BME280_humidity;BME280_pressure;Samples;Min_cycle;Max_cycle;Signal;HPM_P1;HPM_P2
2021/10/19 00:00:06;;;;;;;87.65;15.77;;;;;;;9.54;100.00;97219.56;5013356;28;20499;-52
2021/10/19 00:02:36;;;;;;;47.33;14.77;;;;;;;9.28;100.00;97231.13;5040858;28;20329;-54
2021/10/19 00:05:09;;;;;;;71.57;14.75;;;;;;;9.66;100.00;97211.53;5028271;28;20069;-49
2021/10/19 00:07:38;;;;;;;48.97;16.38;;;;;;;9.77;100.00;97213.31;5020910;28;20061;-50
2021/10/19 00:10:08;;;;;;;63.85;16.58;;;;;;;9.84;100.00;97211.91;5029045;28;20071;-51
2021/10/19 00:12:37;;;;;;;44.08;15.68;;;;;;;9.90;100.00;97207.91;5027751;28;20037;-51
2021/10/19 00:15:08;;;;;;;50.72;15.63;;;;;;;9.73;100.00;97217.97;5028576;28;20092;-52
2021/10/19 00:17:40;;;;;;;94.72;17.38;;;;;;;9.82;100.00;97219.06;5030438;28;20339;-47
2021/10/19 00:20:09;;;;;;;69.32;16.13;;;;;;;9.70;100.00;97217.41;5027445;28;20064;-52
2021/10/19 00:22:38;;;;;;;67.13;16.00;;;;;;;9.41;100.00;97222.31;5026136;28;20464;-53
2021/10/19 00:25:09;;;;;;;42.17;14.30;;;;;;;9.56;100.00;97222.91;5023815;28;20077;-54
2021/10/19 00:27:38;;;;;;;79.18;14.68;;;;;;;9.40;100.00;97210.13;5016564;28;20068;-51
2021/10/19 00:30:09;;;;;;;65.38;15.88;;;;;;;9.70;100.00;97199.81;5041410;28;20080;-51
2021/10/19 00:32:39;;;;;;;80.75;15.98;;;;;;;9.73;100.00;97201.34;5038509;28;20298;-54
2021/10/19 00:35:09;;;;;;;41.70;13.93;;;;;;;9.81;100.00;97198.13;5026038;28;20474;-53
2021/10/19 00:37:38;;;;;;;32.55;14.25;;;;;;;9.28;100.00;97198.72;5019405;28;20084;-49
2021/10/19 00:40:07;;;;;;;41.80;13.73;;;;;;;9.27;100.00;97199.69;5023337;28;20065;-51
2021/10/19 00:42:36;;;;;;;50.35;14.07;;;;;;;9.23;100.00;97201.72;5022588;28;20647;-50
2021/10/19 00:45:07;;;;;;;47.53;14.48;;;;;;;9.12;100.00;97206.09;5023471;28;20081;-52
2021/10/19 00:47:35;;;;;;;;;;;;;;;9.39;100.00;97197.88;5039641;28;20081;-50
2021/10/19 00:50:06;;;;;;;61.30;14.32;;;;;;;9.28;100.00;97201.34;5028202;28;20412;-53
2021/10/19 00:52:34;;;;;;;;;;;;;;;9.14;100.00;97199.78;5025745;28;20071;-48
2021/10/19 00:55:03;;;;;;;57.70;14.13;;;;;;;9.06;100.00;97196.91;5024445;28;20026;-50
2021/10/19 00:57:32;;;;;;;41.28;14.02;;;;;;;9.19;100.00;97197.66;5020960;28;20068;-55
2021/10/19 01:00:00;;;;;;;37.97;13.93;;;;;;;8.71;100.00;97191.69;5030083;28;20080;-51
2021/10/19 01:02:29;;;;;;;78.88;14.60;;;;;;;9.15;100.00;97190.94;5034851;28;20073;-50
2021/10/19 01:04:57;;;;;;;43.45;13.32;;;;;;;9.27;100.00;97200.50;5033012;28;20076;-53
2021/10/19 01:07:27;;;;;;;40.38;13.80;;;;;;;9.18;100.00;97198.59;5036714;28;20088;-51
2021/10/19 01:09:56;;;;;;;32.05;12.57;;;;;;;8.74;100.00;97200.19;5038113;28;20133;-52
2021/10/19 01:12:24;;;;;;;45.65;13.93;;;;;;;8.67;100.00;97200.72;5020546;28;20077;-53
2021/10/19 01:14:53;;;;;;;32.70;12.70;;;;;;;8.77;100.00;97201.72;5039998;28;20473;-52
2021/10/19 01:17:22;;;;;;;26.80;13.05;;;;;;;8.94;100.00;97190.78;5029008;28;20068;-55
2021/10/19 01:19:52;;;;;;;31.33;12.88;;;;;;;8.83;100.00;97201.28;5023978;28;20068;-56
2021/10/19 01:22:21;;;;;;;20.63;11.95;;;;;;;9.12;100.00;97195.56;5032996;28;20069;-55
2021/10/19 01:24:49;;;;;;;29.35;11.77;;;;;;;9.46;100.00;97196.44;5038564;28;20069;-51
2021/10/19 01:27:17;;;;;;;32.40;12.40;;;;;;;9.49;100.00;97193.56;5019227;28;20477;-54
2021/10/19 01:29:46;;;;;;;37.42;13.38;;;;;;;9.55;100.00;97197.53;5030464;28;20457;-55
2021/10/19 01:32:14;;;;;;;22.88;12.98;;;;;;;9.27;100.00;97199.69;5043433;28;20141;-52
2021/10/19 01:34:43;;;;;;;20.75;12.18;;;;;;;9.03;100.00;97194.50;5029255;28;20081;-53
2021/10/19 01:37:13;;;;;;;20.50;12.38;;;;;;;9.41;100.00;97196.81;5025529;28;20068;-55
2021/10/19 01:39:41;;;;;;;24.73;13.68;;;;;;;9.41;100.00;97194.19;5027260;28;20076;-54
2021/10/19 01:42:10;;;;;;;30.98;13.13;;;;;;;9.34;100.00;97194.78;5039973;28;20544;-56
2021/10/19 01:44:38;;;;;;;32.63;11.90;;;;;;;9.17;100.00;97189.03;5025585;28;20057;-57
2021/10/19 01:47:06;;;;;;;42.58;13.32;;;;;;;8.97;100.00;97198.44;5022606;28;20064;-55
2021/10/19 01:49:35;;;;;;;66.25;14.45;;;;;;;8.60;100.00;97191.63;5034879;28;20555;-51
2021/10/19 01:52:04;;;;;;;31.08;12.60;;;;;;;8.59;100.00;97188.16;5038788;28;20081;-53
2021/10/19 01:54:34;;;;;;;30.60;11.85;;;;;;;8.23;100.00;97189.06;5015717;28;20072;-57
2021/10/19 01:57:02;;;;;;;27.33;12.05;;;;;;;8.43;100.00;97190.25;5024196;28;20792;-56
2021/10/19 01:59:30;;;;;;;44.22;12.82;;;;;;;8.33;100.00;97187.44;5017492;28;20069;-57
2021/10/19 02:01:59;;;;;;;33.15;12.50;;;;;;;8.29;100.00;97184.22;5024609;28;20065;-52
2021/10/19 02:04:28;;;;;;;31.70;11.50;;;;;;;8.19;100.00;97184.97;5020496;28;20528;-55
2021/10/19 02:06:56;;;;;;;39.17;12.32;;;;;;;8.47;100.00;97170.69;5028776;28;20065;-55
2021/10/19 02:09:25;;;;;;;31.80;12.35;;;;;;;8.41;100.00;97171.16;5025045;28;20077;-55
2021/10/19 02:11:55;;;;;;;26.52;12.15;;;;;;;8.09;100.00;97175.16;5029383;28;20081;-57
2021/10/19 02:14:24;;;;;;;33.35;12.63;;;;;;;8.35;100.00;97175.03;5016009;28;20070;-55
2021/10/19 02:16:52;;;;;;;32.67;12.07;;;;;;;8.12;100.00;97176.72;5026392;28;20076;-53
2021/10/19 02:19:25;;;;;;;35.90;12.07;;;;;;;7.80;100.00;97173.78;5025616;28;20532;-50
2021/10/19 02:21:53;;;;;;;30.63;11.90;;;;;;;7.89;100.00;97167.88;5022842;28;20052;-51
2021/10/19 02:24:22;;;;;;;32.65;12.43;;;;;;;7.86;100.00;97165.47;5021997;28;20077;-53
2021/10/19 02:26:51;;;;;;;23.52;11.07;;;;;;;7.78;100.00;97159.94;5025257;28;20073;-50
2021/10/19 02:29:21;;;;;;;29.30;11.02;;;;;;;7.59;100.00;97160.41;5021071;28;20080;-61
2021/10/19 02:31:49;;;;;;;20.98;11.30;;;;;;;7.49;100.00;97159.38;5035828;28;20075;-59
2021/10/19 02:34:18;;;;;;;22.15;11.18;;;;;;;7.48;100.00;97152.44;5028063;28;20072;-60
2021/10/19 02:36:46;;;;;;;18.65;10.23;;;;;;;7.32;100.00;97140.41;5018170;28;20065;-58
2021/10/19 02:39:15;;;;;;;14.70;10.73;;;;;;;7.40;100.00;97139.88;5025629;28;20585;-57
2021/10/19 02:41:44;;;;;;;14.20;10.52;;;;;;;7.31;100.00;97140.53;5029034;28;20169;-57
2021/10/19 02:44:12;;;;;;;14.02;11.13;;;;;;;7.48;100.00;97137.53;5034335;28;20080;-59
2021/10/19 02:46:42;;;;;;;11.15;9.63;;;;;;;7.60;100.00;97134.06;5039526;28;20068;-59
2021/10/19 02:49:11;;;;;;;13.20;9.27;;;;;;;7.58;100.00;97130.69;5029793;28;20827;-58
2021/10/19 02:51:39;;;;;;;13.15;9.55;;;;;;;7.53;100.00;97135.41;5024342;28;20075;-58
2021/10/19 02:54:10;;;;;;;11.57;9.52;;;;;;;7.28;100.00;97135.47;5044481;28;20544;-56
2021/10/19 02:56:39;;;;;;;11.65;9.68;;;;;;;7.19;100.00;97136.97;5025466;28;20245;-55
2021/10/19 02:59:08;;;;;;;11.15;9.07;;;;;;;7.55;100.00;97144.03;5022892;28;20084;-58
2021/10/19 03:01:36;;;;;;;14.15;8.98;;;;;;;7.69;100.00;97144.84;5034538;28;20061;-58
2021/10/19 03:04:06;;;;;;;12.82;8.75;;;;;;;7.58;100.00;97138.56;5038951;28;20072;-59
2021/10/19 03:06:34;;;;;;;11.98;9.50;;;;;;;7.59;100.00;97142.84;5039009;28;20069;-58
2021/10/19 03:09:03;;;;;;;11.57;8.75;;;;;;;7.48;100.00;97141.94;5019773;28;20085;-58
2021/10/19 03:11:31;;;;;;;10.70;8.57;;;;;;;7.10;100.00;97143.69;5023160;28;20068;-59
2021/10/19 03:14:00;;;;;;;43.90;9.88;;;;;;;7.27;100.00;97145.13;5018749;28;20073;-58
2021/10/19 03:16:28;;;;;;;12.13;8.55;;;;;;;7.38;100.00;97142.59;5022645;28;20077;-59
2021/10/19 03:18:57;;;;;;;12.98;8.50;;;;;;;7.13;100.00;97143.47;5022246;28;20065;-60
2021/10/19 03:21:26;;;;;;;12.50;9.50;;;;;;;7.31;100.00;97148.38;5018935;28;20076;-59
2021/10/19 03:23:55;;;;;;;11.40;9.50;;;;;;;7.31;100.00;97157.09;5023232;28;20078;-59
2021/10/19 03:26:23;;;;;;;11.60;9.45;;;;;;;7.05;100.00;97155.44;5025392;28;20549;-57
2021/10/19 03:28:52;;;;;;;10.80;9.27;;;;;;;6.80;100.00;97156.28;5019700;28;20084;-57
2021/10/19 03:31:20;;;;;;;10.70;8.77;;;;;;;6.61;100.00;97151.44;5034480;28;20076;-59
2021/10/19 03:33:49;;;;;;;11.10;9.13;;;;;;;6.71;100.00;97151.66;5037155;28;20065;-58
2021/10/19 03:36:17;;;;;;;10.32;8.82;;;;;;;6.72;100.00;97156.81;5018819;28;20125;-59
2021/10/19 03:38:47;;;;;;;9.77;8.48;;;;;;;7.10;100.00;97155.97;5025326;28;20084;-59
2021/10/19 03:41:16;;;;;;;11.20;8.60;;;;;;;7.25;100.00;97159.31;5022495;28;20564;-59
2021/10/19 03:43:44;;;;;;;11.13;8.60;;;;;;;7.27;100.00;97157.41;5023792;28;20482;-58
2021/10/19 03:46:12;;;;;;;10.57;8.82;;;;;;;7.38;100.00;97147.84;5022982;28;20500;-60
2021/10/19 03:48:41;;;;;;;11.45;8.85;;;;;;;7.28;100.00;97149.44;5018367;28;20529;-56
2021/10/19 03:51:09;;;;;;;12.63;8.73;;;;;;;6.77;100.00;97148.63;5016633;28;20549;-57
2021/10/19 03:53:38;;;;;;;11.48;8.43;;;;;;;6.78;100.00;97145.91;5038571;28;20153;-59
2021/10/19 03:56:08;;;;;;;15.75;8.77;;;;;;;6.83;100.00;97150.81;5026630;28;20065;-59
2021/10/19 03:58:36;;;;;;;11.63;8.07;;;;;;;6.96;100.00;97156.09;5016460;28;20065;-58
2021/10/19 04:01:05;;;;;;;11.48;7.82;;;;;;;7.02;100.00;97148.63;5028182;28;20782;-59
2021/10/19 04:03:34;;;;;;;11.52;8.45;;;;;;;7.18;100.00;97151.03;5037698;28;20061;-55
2021/10/19 04:06:02;;;;;;;24.92;9.23;;;;;;;7.25;100.00;97173.25;5025984;28;20088;-58
2021/10/19 04:08:30;;;;;;;42.80;7.68;;;;;;;7.01;100.00;97180.19;5045073;28;20079;-58
2021/10/19 04:10:59;;;;;;;44.25;7.22;;;;;;;7.17;100.00;97182.63;5046584;28;20555;-59
2021/10/19 04:13:29;;;;;;;31.05;6.97;;;;;;;6.83;100.00;97184.91;5046169;28;20073;-57
2021/10/19 04:15:57;;;;;;;14.70;7.88;;;;;;;7.11;100.00;97189.94;5042897;28;20749;-57
2021/10/19 04:18:25;;;;;;;15.07;7.82;;;;;;;6.97;100.00;97199.72;5039654;28;20088;-57
2021/10/19 04:20:55;;;;;;;16.27;8.63;;;;;;;6.89;100.00;97210.72;5041929;28;20088;-60
2021/10/19 04:23:23;;;;;;;49.75;10.10;;;;;;;6.76;100.00;97209.84;5027063;28;20069;-57
2021/10/19 04:25:52;;;;;;;10.38;8.38;;;;;;;6.85;100.00;97211.88;5027739;28;20073;-58
2021/10/19 04:28:21;;;;;;;17.83;8.85;;;;;;;6.86;100.00;97203.88;5031655;28;20069;-59
2021/10/19 04:30:51;;;;;;;13.65;8.82;;;;;;;6.80;100.00;97200.84;5034149;28;20084;-58
2021/10/19 04:33:20;;;;;;;10.88;8.55;;;;;;;6.20;100.00;97206.56;5016976;28;20081;-59
2021/10/19 04:35:49;;;;;;;13.75;9.30;;;;;;;6.49;100.00;97207.28;5013305;28;20088;-58
2021/10/19 04:38:17;;;;;;;19.05;8.95;;;;;;;6.55;100.00;97210.34;5027152;28;20069;-59
2021/10/19 04:40:46;;;;;;;18.80;10.13;;;;;;;6.38;100.00;97208.00;5028098;28;20069;-59
2021/10/19 04:43:14;;;;;;;12.95;9.70;;;;;;;6.06;100.00;97210.06;5021511;28;20069;-58
2021/10/19 04:45:43;;;;;;;12.50;9.15;;;;;;;5.96;100.00;97209.00;5027707;28;20088;-57
2021/10/19 04:48:14;;;;;;;11.90;8.98;;;;;;;6.11;100.00;97202.75;5042647;28;20080;-58
2021/10/19 04:50:42;;;;;;;12.23;9.40;;;;;;;6.44;100.00;97199.72;5039196;28;20095;-59
2021/10/19 04:53:11;;;;;;;12.40;9.43;;;;;;;6.70;100.00;97199.78;5043696;28;20091;-58
2021/10/19 04:55:39;;;;;;;12.55;8.65;;;;;;;6.81;100.00;97200.75;5045141;28;20069;-58
2021/10/19 04:58:08;;;;;;;11.82;8.73;;;;;;;6.75;100.00;97195.09;5045801;28;20072;-59
2021/10/19 05:00:36;;;;;;;10.73;8.18;;;;;;;6.79;100.00;97189.53;5047412;28;20075;-59
2021/10/19 05:03:05;;;;;;;11.38;8.75;;;;;;;6.65;100.00;97185.19;5039571;28;20077;-57
2021/10/19 05:05:35;;;;;;;11.48;8.98;;;;;;;6.37;100.00;97183.56;5049709;28;20079;-56
2021/10/19 05:08:03;;;;;;;10.63;8.73;;;;;;;6.52;100.00;97183.50;5031803;28;20068;-56
2021/10/19 05:10:31;;;;;;;11.27;8.25;;;;;;;6.72;100.00;97190.03;5041399;28;20524;-58
2021/10/19 05:13:00;;;;;;;9.32;7.88;;;;;;;6.83;100.00;97185.75;5042746;28;20061;-58
2021/10/19 05:15:29;;;;;;;16.52;10.00;;;;;;;6.66;100.00;97194.72;5037775;28;20099;-58
2021/10/19 05:17:57;;;;;;;11.48;9.50;;;;;;;6.72;100.00;97197.91;5027307;28;20089;-55
2021/10/19 05:20:26;;;;;;;15.63;9.20;;;;;;;6.97;100.00;97181.34;5019232;28;20069;-57
2021/10/19 05:22:56;;;;;;;10.43;8.50;;;;;;;6.51;100.00;97187.91;5036898;28;20057;-58
2021/10/19 05:25:25;;;;;;;12.00;8.15;;;;;;;6.46;100.00;97183.91;5039854;28;20638;-54
2021/10/19 05:27:53;;;;;;;9.52;8.43;;;;;;;6.68;100.00;97185.94;5049222;28;20075;-58
2021/10/19 05:30:22;;;;;;;9.43;8.43;;;;;;;6.28;100.00;97180.72;5049448;28;20088;-57
2021/10/19 05:32:50;;;;;;;12.55;9.02;;;;;;;6.31;100.00;97172.66;5053022;28;20425;-58
2021/10/19 05:35:19;;;;;;;12.60;9.02;;;;;;;6.36;100.00;97179.25;5046200;28;20079;-57
2021/10/19 05:37:47;;;;;;;10.65;8.50;;;;;;;6.64;100.00;97199.25;5034634;28;20461;-56
2021/10/19 05:40:17;;;;;;;11.50;8.30;;;;;;;6.41;100.00;97199.94;5029585;28;20061;-55
2021/10/19 05:42:46;;;;;;;13.32;8.25;;;;;;;6.57;100.00;97199.75;5038143;28;20088;-58
2021/10/19 05:45:15;;;;;;;13.48;8.30;;;;;;;6.37;100.00;97208.94;5047326;28;20077;-59
2021/10/19 05:47:45;;;;;;;11.82;8.07;;;;;;;6.94;100.00;97206.00;5018867;28;20085;-54
2021/10/19 05:50:16;;;;;;;14.32;9.68;;;;;;;6.77;100.00;97206.28;5022535;28;20073;-56
2021/10/19 05:52:44;;;;;;;11.95;9.00;;;;;;;6.78;100.00;97198.34;5026583;28;20041;-58
2021/10/19 05:55:13;;;;;;;15.80;10.00;;;;;;;7.07;100.00;97185.84;5040785;28;20092;-56
2021/10/19 05:57:43;;;;;;;15.10;10.38;;;;;;;7.24;100.00;97181.25;5038080;28;20065;-59
2021/10/19 06:00:13;;;;;;;12.35;10.00;;;;;;;7.26;100.00;97177.56;5029400;28;20103;-59
2021/10/19 06:02:41;;;;;;;11.32;9.48;;;;;;;7.33;100.00;97170.97;5038381;28;20552;-58
2021/10/19 06:05:10;;;;;;;12.93;9.88;;;;;;;7.25;100.00;97162.75;5048915;28;20542;-58
2021/10/19 06:07:38;;;;;;;12.43;10.00;;;;;;;7.80;100.00;97165.91;5055155;28;20075;-60
2021/10/19 06:10:08;;;;;;;11.95;9.45;;;;;;;7.72;100.00;97168.25;5034520;28;20069;-58
2021/10/19 06:12:36;;;;;;;11.05;9.43;;;;;;;7.70;100.00;97168.34;5023553;28;20057;-60
2021/10/19 06:15:07;;;;;;;14.32;8.73;;;;;;;7.85;100.00;97162.00;5037672;28;20080;-58
2021/10/19 06:17:35;;;;;;;12.75;8.48;;;;;;;7.84;100.00;97169.97;5027246;28;20457;-59
2021/10/19 06:20:05;;;;;;;12.75;8.50;;;;;;;8.21;100.00;97167.31;5015660;28;20069;-59
2021/10/19 06:22:33;;;;;;;10.68;8.77;;;;;;;8.23;100.00;97166.25;5036032;28;20060;-59
2021/10/19 06:25:02;;;;;;;10.32;7.57;;;;;;;8.19;100.00;97169.22;5029969;28;20074;-58
2021/10/19 06:27:30;;;;;;;10.25;8.32;;;;;;;8.14;100.00;97168.72;5044923;28;20100;-57
2021/10/19 06:29:58;;;;;;;11.02;8.30;;;;;;;8.21;100.00;97170.78;5021531;28;20100;-58
2021/10/19 06:32:28;;;;;;;13.80;7.40;;;;;;;7.97;100.00;97168.16;5044867;28;20595;-57
2021/10/19 06:34:57;;;;;;;9.05;7.18;;;;;;;8.16;100.00;97172.09;5017850;28;20062;-58
2021/10/19 06:37:25;;;;;;;10.93;6.75;;;;;;;8.73;100.00;97179.25;5035472;28;20465;-55
2021/10/19 06:39:54;;;;;;;10.23;6.57;;;;;;;8.99;100.00;97174.66;5048370;28;20079;-57
2021/10/19 06:42:22;;;;;;;9.30;7.18;;;;;;;9.25;100.00;97154.22;5046040;28;20087;-58
2021/10/19 06:44:51;;;;;;;8.90;7.57;;;;;;;8.84;100.00;97158.22;5023698;28;20549;-59
2021/10/19 06:47:19;;;;;;;12.20;7.60;;;;;;;8.69;100.00;97173.38;5039101;28;20581;-59
2021/10/19 06:49:49;;;;;;;8.02;6.80;;;;;;;8.80;100.00;97165.50;5049405;28;20068;-60
2021/10/19 06:52:17;;;;;;;7.65;6.28;;;;;;;9.37;100.00;97158.53;5048527;28;20065;-57
2021/10/19 06:54:46;;;;;;;10.65;7.53;;;;;;;9.66;100.00;97163.28;5043882;28;20059;-54
2021/10/19 06:57:14;;;;;;;7.43;6.57;;;;;;;9.57;100.00;97170.13;5038375;28;20099;-58
2021/10/19 06:59:42;;;;;;;11.13;6.70;;;;;;;9.69;100.00;97176.22;5030039;28;20490;-53
2021/10/19 07:02:11;;;;;;;12.40;6.70;;;;;;;9.78;100.00;97188.66;5019200;28;20136;-58
2021/10/19 07:04:40;;;;;;;8.30;6.28;;;;;;;9.94;100.00;97199.66;5036190;28;20057;-58
2021/10/19 07:07:28;;;;;;;8.57;6.35;;;;;;;9.68;100.00;97195.63;5040140;28;20485;-58
2021/10/19 07:09:57;;;;;;;7.50;5.82;;;;;;;10.23;100.00;97194.69;5041383;28;20652;-57
2021/10/19 07:12:26;;;;;;;11.30;5.80;;;;;;;10.26;100.00;97192.81;5022773;28;20089;-57
2021/10/19 07:14:54;;;;;;;12.27;5.80;;;;;;;10.09;100.00;97194.13;5019297;28;20092;-56
2021/10/19 07:17:23;;;;;;;7.35;5.35;;;;;;;10.68;100.00;97189.25;5046230;28;20080;-59
2021/10/19 07:19:51;;;;;;;8.98;5.53;;;;;;;11.09;100.00;97182.31;5034056;28;20065;-57
2021/10/19 07:22:19;;;;;;;9.40;5.70;;;;;;;11.39;100.00;97184.16;5041301;28;20068;-59
2021/10/19 07:24:49;;;;;;;7.40;5.45;;;;;;;11.09;100.00;97177.03;5046506;28;20493;-59
2021/10/19 07:27:18;;;;;;;11.25;5.70;;;;;;;11.50;100.00;97182.41;5041096;28;20567;-56
2021/10/19 07:29:46;;;;;;;8.38;5.43;;;;;;;11.90;100.00;97186.88;5031668;28;20091;-60
2021/10/19 07:32:15;;;;;;;10.32;5.43;;;;;;;12.07;100.00;97187.03;5024886;28;20073;-60
2021/10/19 07:34:43;;;;;;;7.47;5.25;;;;;;;12.27;100.00;97185.28;5039761;28;20068;-60
2021/10/19 07:37:12;;;;;;;7.45;4.80;;;;;;;12.09;100.00;97179.81;5036694;28;20064;-59
2021/10/19 07:39:40;;;;;;;7.22;4.60;;;;;;;11.84;100.00;97185.63;5025416;28;20064;-58
2021/10/19 07:42:10;;;;;;;6.28;4.97;;;;;;;12.00;100.00;97188.56;5016351;28;20085;-59
2021/10/19 07:44:40;;;;;;;6.95;4.97;;;;;;;12.16;100.00;97182.75;5025218;28;20405;-57
2021/10/19 07:47:08;;;;;;;8.32;4.78;;;;;;;12.72;100.00;97190.03;5011887;28;20074;-58
2021/10/19 07:49:36;;;;;;;6.93;5.18;;;;;;;11.84;100.00;97201.47;5027577;28;20065;-59
2021/10/19 07:52:05;;;;;;;8.40;5.03;;;;;;;12.56;100.00;97198.53;5026922;28;20077;-60
2021/10/19 07:54:34;;;;;;;6.43;4.57;;;;;;;12.58;100.00;97199.22;5028097;28;20061;-58
2021/10/19 07:57:02;;;;;;;7.43;5.05;;;;;;;12.82;100.00;97201.44;5022272;28;20108;-58
2021/10/19 07:59:32;;;;;;;7.10;4.38;;;;;;;12.15;100.00;97196.97;5033482;28;20536;-58
2021/10/19 08:02:01;;;;;;;8.23;5.10;;;;;;;12.51;100.00;97202.56;5040373;28;20061;-59
2021/10/19 08:04:29;;;;;;;9.10;6.00;;;;;;;13.06;100.00;97197.53;5052846;28;20068;-59
2021/10/19 08:07:13;;;;;;;8.93;6.57;;;;;;;12.74;100.00;97198.66;5035367;28;20034;-59
2021/10/19 08:09:42;;;;;;;7.70;4.78;;;;;;;12.93;100.00;97203.09;5037258;28;20057;-59
2021/10/19 08:12:10;;;;;;;8.10;4.60;;;;;;;12.74;100.00;97211.91;5029276;28;20085;-57
2021/10/19 08:14:40;;;;;;;6.40;4.50;;;;;;;13.13;100.00;97218.97;5044550;28;20072;-58
2021/10/19 08:17:09;;;;;;;6.80;3.95;;;;;;;13.38;100.00;97223.69;5052243;28;20077;-59
2021/10/19 08:19:37;;;;;;;5.97;3.92;;;;;;;13.44;100.00;97223.13;5051024;28;20072;-57
2021/10/19 08:22:06;;;;;;;6.10;3.65;;;;;;;13.44;100.00;97227.59;5043378;28;20782;-58
2021/10/19 08:24:34;;;;;;;8.90;3.67;;;;;;;13.75;100.00;97228.19;5028289;28;20057;-58
2021/10/19 08:27:03;;;;;;;6.63;3.60;;;;;;;14.67;100.00;97220.16;5026885;28;20085;-59
2021/10/19 08:29:31;;;;;;;7.07;5.13;;;;;;;15.05;100.00;97217.31;5032158;28;20080;-55
2021/10/19 08:32:01;;;;;;;8.80;5.75;;;;;;;14.85;100.00;97224.63;5011176;28;20548;-58
2021/10/19 08:34:29;;;;;;;4.97;3.38;;;;;;;14.80;100.00;97211.81;5024764;28;20069;-57
2021/10/19 08:36:58;;;;;;;5.22;3.42;;;;;;;14.59;100.00;97220.09;5017091;28;20080;-57
2021/10/19 08:39:26;;;;;;;9.10;3.67;;;;;;;14.68;100.00;97215.66;5030380;28;20474;-59
2021/10/19 08:41:55;;;;;;;7.85;4.20;;;;;;;14.64;100.00;97216.97;5018310;28;20079;-58
2021/10/19 08:44:23;;;;;;;54.33;35.60;;;;;;;14.62;100.00;97218.91;5036842;28;20473;-58
2021/10/19 08:46:52;;;;;;;9.85;3.75;;;;;;;14.85;100.00;97225.44;5047846;28;20099;-55
2021/10/19 08:49:21;;;;;;;10.30;4.38;;;;;;;15.35;100.00;97218.72;5049182;28;20076;-59
2021/10/19 08:51:50;;;;;;;8.52;3.50;;;;;;;15.14;100.00;97219.91;5032362;28;20068;-59
2021/10/19 08:54:18;;;;;;;8.07;3.90;;;;;;;15.29;100.00;97216.69;5034493;28;20085;-55
2021/10/19 08:56:47;;;;;;;5.70;3.53;;;;;;;15.03;100.00;97221.94;5045863;28;20544;-57
2021/10/19 08:59:21;;;;;;;8.00;3.90;;;;;;;14.70;100.00;97227.81;5033512;28;20091;-56
2021/10/19 09:01:50;;;;;;;6.60;3.72;;;;;;;14.36;100.00;97219.63;5037110;28;20528;-56
2021/10/19 09:04:19;;;;;;;5.65;3.35;;;;;;;14.40;100.00;97214.88;5045605;28;20072;-58
2021/10/19 09:06:49;;;;;;;5.72;3.20;;;;;;;14.46;100.00;97224.88;5038731;28;20077;-59
2021/10/19 09:09:23;;;;;;;5.90;3.20;;;;;;;14.73;100.00;97218.72;5042921;28;20473;-58
2021/10/19 09:11:53;;;;;;;5.45;3.63;;;;;;;14.83;100.00;97216.81;5045758;28;20088;-59
2021/10/19 09:14:28;;;;;;;9.53;3.37;;;;;;;14.78;100.00;97213.78;5043140;28;20075;-56
2021/10/19 09:16:59;;;;;;;6.00;3.42;;;;;;;14.93;100.00;97216.72;5049295;28;20072;-58
2021/10/19 09:19:29;;;;;;;7.70;4.43;;;;;;;14.42;100.00;97219.03;5053423;28;20461;-58
2021/10/19 09:22:03;;;;;;;5.05;3.80;;;;;;;15.09;100.00;97222.16;5048288;28;20080;-58
2021/10/19 09:24:33;;;;;;;5.97;3.40;;;;;;;14.70;100.00;97219.84;5048465;28;20121;-57
2021/10/19 09:27:03;;;;;;;6.40;3.70;;;;;;;15.14;100.00;97224.34;5031931;28;20080;-58
2021/10/19 09:29:35;;;;;;;7.05;3.80;;;;;;;15.28;100.00;97220.31;5034302;28;20472;-58
2021/10/19 09:32:07;;;;;;;7.85;3.80;;;;;;;15.30;100.00;97224.47;5039005;28;20557;-58
2021/10/19 09:34:37;;;;;;;5.55;3.67;;;;;;;15.64;100.00;97221.88;5040925;28;20079;-58
2021/10/19 09:37:10;;;;;;;7.28;4.38;;;;;;;16.03;100.00;97217.94;5040742;28;20475;-58
2021/10/19 09:39:40;;;;;;;6.53;3.70;;;;;;;15.66;100.00;97221.75;5039793;28;20348;-58
2021/10/19 09:42:10;;;;;;;8.93;3.80;;;;;;;15.76;100.00;97226.94;5044576;28;20088;-59
2021/10/19 09:44:38;;;;;;;5.00;3.75;;;;;;;15.97;100.00;97232.72;5027685;28;20298;-57
2021/10/19 09:47:06;;;;;;;6.57;3.63;;;;;;;16.29;100.00;97234.66;5038263;28;20533;-59
2021/10/19 09:49:35;;;;;;;8.00;4.45;;;;;;;16.04;100.00;97232.94;5047133;28;20065;-57
2021/10/19 09:52:07;;;;;;;7.88;3.83;;;;;;;16.37;100.00;97232.03;5044990;28;20587;-59
2021/10/19 09:54:36;;;;;;;5.75;3.47;;;;;;;16.69;100.00;97233.13;5042331;28;20069;-55
2021/10/19 09:57:05;;;;;;;7.00;4.00;;;;;;;16.06;100.00;97230.91;5040212;28;20081;-57
2021/10/19 09:59:36;;;;;;;5.63;3.42;;;;;;;16.20;100.00;97224.97;5019783;28;20474;-59
2021/10/19 10:02:04;;;;;;;7.72;4.35;;;;;;;15.72;100.00;97229.09;5022461;28;20079;-59
2021/10/19 10:04:34;;;;;;;9.05;3.65;;;;;;;16.31;100.00;97234.50;5039953;28;20477;-57
2021/10/19 10:07:02;;;;;;;5.05;3.75;;;;;;;16.59;100.00;97243.91;5042525;28;20076;-55
2021/10/19 10:09:33;;;;;;;7.93;4.18;;;;;;;16.53;100.00;97233.09;5051143;28;20068;-57
2021/10/19 10:12:05;;;;;;;5.65;3.88;;;;;;;16.05;100.00;97224.78;5044446;28;20092;-59
2021/10/19 10:14:41;;;;;;;8.32;4.75;;;;;;;16.56;100.00;97222.09;5044843;28;20065;-58
2021/10/19 10:17:11;;;;;;;8.25;5.18;;;;;;;16.22;100.00;97228.34;5028952;28;20065;-58
2021/10/19 10:19:39;;;;;;;9.05;4.90;;;;;;;16.47;100.00;97223.91;5022704;28;20556;-58
2021/10/19 10:22:16;;;;;;;8.48;5.20;;;;;;;16.16;100.00;97217.50;5027439;28;20077;-59
2021/10/19 10:24:46;;;;;;;7.65;5.50;;;;;;;16.55;100.00;97223.09;5026401;28;20473;-59
2021/10/19 10:27:16;;;;;;;9.60;6.50;;;;;;;16.68;100.00;97220.78;5037482;28;20084;-59
2021/10/19 10:29:46;;;;;;;9.13;6.72;;;;;;;17.15;100.00;97225.50;5044945;28;20072;-59
2021/10/19 10:32:22;;;;;;;11.60;6.82;;;;;;;17.47;100.00;97234.47;5036808;28;20073;-58
2021/10/19 10:35:02;;;;;;;16.85;6.43;;;;;;;16.74;100.00;97232.63;5043583;28;20069;-59
2021/10/19 10:37:39;;;;;;;10.77;6.10;;;;;;;17.00;100.00;97224.53;5041478;28;20091;-57
2021/10/19 10:40:26;;;;;;;8.27;5.28;;;;;;;16.05;100.00;97218.63;5041162;28;20072;-57
2021/10/19 10:42:55;;;;;;;12.25;6.40;;;;;;;16.52;100.00;97207.47;5034691;28;20088;-59
2021/10/19 10:45:24;;;;;;;11.80;6.47;;;;;;;16.21;100.00;97207.19;5041839;28;20085;-57
2021/10/19 10:47:57;;;;;;;11.52;4.88;;;;;;;15.72;100.00;97207.81;5040257;28;20091;-57
2021/10/19 10:50:26;;;;;;;9.63;4.38;;;;;;;17.29;100.00;97214.19;5038557;28;20064;-59
2021/10/19 10:52:59;;;;;;;6.90;4.85;;;;;;;17.67;100.00;97202.94;5036510;28;20132;-57
2021/10/19 10:55:33;;;;;;;9.77;5.25;;;;;;;17.15;100.00;97216.69;5037887;28;20078;-59
2021/10/19 10:58:02;;;;;;;12.18;5.45;;;;;;;17.20;100.00;97211.69;5041682;28;20520;-57
2021/10/19 11:00:31;;;;;;;12.00;5.10;;;;;;;17.67;100.00;97193.09;5043887;28;21280;-58
2021/10/19 11:03:10;;;;;;;5.88;3.75;;;;;;;18.08;100.00;97190.31;5023287;28;20088;-55
2021/10/19 11:05:54;;;;;;;6.93;4.00;;;;;;;18.12;100.00;97194.31;5012182;28;20155;-58
2021/10/19 11:08:24;;;;;;;6.30;4.72;;;;;;;18.80;100.00;97182.09;5010833;28;20069;-59
2021/10/19 11:11:03;;;;;;;9.45;4.40;;;;;;;17.92;100.00;97185.03;5027628;28;20080;-59
2021/10/19 11:13:32;;;;;;;8.02;4.35;;;;;;;16.93;100.00;97189.72;5020693;28;20558;-60
2021/10/19 11:16:01;;;;;;;7.03;3.50;;;;;;;17.26;100.00;97173.69;5028589;28;20069;-57
2021/10/19 11:18:29;;;;;;;5.60;3.60;;;;;;;16.63;100.00;97171.69;5020394;28;20127;-59
2021/10/19 11:20:58;;;;;;;5.63;3.30;;;;;;;16.51;100.00;97163.16;5034356;28;20490;-59
2021/10/19 11:23:26;;;;;;;6.10;3.50;;;;;;;16.61;100.00;97156.69;5026775;28;20068;-58
2021/10/19 11:25:59;;;;;;;7.05;3.90;;;;;;;17.53;100.00;97173.31;5027262;28;20045;-58
2021/10/19 11:28:27;;;;;;;8.80;3.85;;;;;;;17.63;100.00;97161.63;5014503;28;20084;-58
2021/10/19 11:30:56;;;;;;;7.38;4.43;;;;;;;17.97;100.00;97161.34;5024101;28;20069;-59
2021/10/19 11:33:24;;;;;;;9.23;3.80;;;;;;;18.23;100.00;97167.22;5022213;28;20077;-60